Time;durP1;ratioP1;P1;durP2;ratioP2;P2;SDS_P1;SDS_P2;PMS_P1;PMS_P2;Temp;Humidity;BMP_temperature;BMP_pressure;BME280_temperature;BME280_humidity;BME280_pressure;Samples;Min_cycle;Max_cycle;Signal;HPM_P1;HPM_P2
2022/09/17 00:01:27;;;;;;;2.85;0.80;;;;;;;9.61;92.97;97816.93;1753117;80;21021;-60
2022/09/17 00:03:59;;;;;;;1.30;0.60;;;;;;;9.60;93.06;97820.45;1741464;80;21468;-59
2022/09/17 00:06:26;;;;;;;2.62;0.88;;;;;;;9.62;93.05;97823.79;1749300;79;21094;-60
2022/09/17 00:08:54;;;;;;;0.80;0.50;;;;;;;9.62;93.06;97820.36;1748173;80;21081;-60
2022/09/17 00:11:28;;;;;;;7.45;0.95;;;;;;;9.66;93.09;97831.38;1755077;80;21614;-60
2022/09/17 00:13:58;;;;;;;2.55;0.60;;;;;;;9.63;93.09;97820.70;1744224;80;21685;-60
2022/09/17 00:16:38;;;;;;;0.93;0.40;;;;;;;9.64;93.00;97825.82;1746611;80;21523;-60
2022/09/17 00:19:09;;;;;;;1.67;0.40;;;;;;;9.63;93.02;97824.17;1746044;80;21054;-60
2022/09/17 00:21:36;;;;;;;2.12;0.50;;;;;;;9.62;93.08;97826.40;1756348;80;21011;-60
2022/09/17 00:24:05;;;;;;;2.60;0.50;;;;;;;9.60;93.12;97828.28;1752894;79;21831;-60
2022/09/17 00:26:35;;;;;;;1.65;0.60;;;;;;;9.63;93.05;97828.08;1747194;80;21084;-60
2022/09/17 00:29:04;;;;;;;1.85;0.90;;;;;;;9.63;93.12;97829.37;1750836;80;20949;-60
2022/09/17 00:31:32;;;;;;;3.22;0.60;;;;;;;9.61;93.24;97832.56;1746613;80;21044;-60
2022/09/17 00:34:00;;;;;;;1.35;0.45;;;;;;;9.62;93.19;97836.82;1748303;80;21033;-60
2022/09/17 00:36:27;;;;;;;0.95;0.50;;;;;;;9.62;93.28;97840.73;1751384;80;21784;-60
2022/09/17 00:38:58;;;;;;;2.47;0.60;;;;;;;9.60;93.35;97846.52;1748779;80;21121;-61
2022/09/17 00:41:29;;;;;;;1.65;0.50;;;;;;;9.60;93.38;97842.61;1751845;80;20964;-60
2022/09/17 00:43:59;;;;;;;3.12;0.55;;;;;;;9.59;93.48;97840.95;1743487;80;21059;-60
2022/09/17 00:46:42;;;;;;;4.33;0.60;;;;;;;9.59;93.59;97847.47;1739491;80;21107;-60
2022/09/17 00:49:26;;;;;;;1.42;0.60;;;;;;;9.59;93.70;97838.35;1748815;80;21128;-60
2022/09/17 00:52:10;;;;;;;3.50;0.70;;;;;;;9.61;93.85;97845.59;1750932;80;21044;-60
2022/09/17 00:54:42;;;;;;;3.95;0.60;;;;;;;9.66;93.82;97856.13;1750661;79;21005;-60
2022/09/17 00:57:09;;;;;;;1.47;0.45;;;;;;;9.67;93.86;97846.09;1748079;80;21029;-60
2022/09/17 00:59:36;;;;;;;3.97;0.60;;;;;;;9.71;93.86;97841.00;1746728;80;21000;-59
2022/09/17 01:02:04;;;;;;;2.00;0.50;;;;;;;9.74;93.93;97843.37;1755228;80;26729;-60
2022/09/17 01:04:31;;;;;;;0.85;0.40;;;;;;;9.75;93.89;97847.66;1753398;80;21571;-60
2022/09/17 01:07:25;;;;;;;1.37;0.43;;;;;;;9.76;93.91;97841.50;1745785;80;21132;-60
2022/09/17 01:10:00;;;;;;;1.87;0.72;;;;;;;9.75;93.99;97843.75;1745470;80;21114;-61
2022/09/17 01:13:00;;;;;;;1.05;0.47;;;;;;;9.76;93.99;97837.59;1757095;80;21020;-60
2022/09/17 01:15:43;;;;;;;0.93;0.57;;;;;;;9.76;94.05;97838.41;1752385;80;21929;-60
2022/09/17 01:18:36;;;;;;;0.82;0.30;;;;;;;9.77;94.05;97835.33;1747012;80;22001;-60
2022/09/17 01:21:31;;;;;;;1.77;0.50;;;;;;;9.76;93.97;97834.98;1755556;80;20961;-60
2022/09/17 01:24:11;;;;;;;0.93;0.40;;;;;;;9.76;94.08;97827.16;1746685;80;21010;-60
2022/09/17 01:27:04;;;;;;;0.65;0.50;;;;;;;9.77;94.03;97836.16;1752189;80;21519;-59
2022/09/17 01:30:13;;;;;;;1.60;0.30;;;;;;;9.76;93.97;97838.89;1741012;80;21293;-60
2022/09/17 01:33:05;;;;;;;1.37;0.30;;;;;;;9.75;93.98;97847.66;1658243;85;21182;-60
2022/09/17 01:36:03;;;;;;;0.62;0.30;;;;;;;9.72;94.01;97843.95;1661347;85;20989;-59
2022/09/17 01:38:51;;;;;;;1.57;0.30;;;;;;;9.70;94.11;97840.65;1649684;84;21096;-59
2022/09/17 01:41:44;;;;;;;0.57;0.30;;;;;;;9.74;94.15;97845.98;1655543;85;21082;-60
2022/09/17 01:44:41;;;;;;;0.95;0.37;;;;;;;9.75;94.05;97847.66;1657726;85;21210;-59
2022/09/17 01:47:28;;;;;;;1.70;0.40;;;;;;;9.72;93.95;97843.95;1659980;85;21034;-59
2022/09/17 01:50:06;;;;;;;0.98;0.30;;;;;;;9.85;93.33;97851.23;1664404;85;21720;-59
2022/09/17 01:52:37;;;;;;;0.78;0.23;;;;;;;9.83;93.32;97853.11;1653967;85;21558;-60
2022/09/17 01:55:08;;;;;;;0.42;0.20;;;;;;;9.81;93.21;97856.33;1658815;85;21092;-60
2022/09/17 01:57:46;;;;;;;1.15;0.20;;;;;;;9.79;93.34;97852.99;1618832;87;22014;-60
2022/09/17 02:00:16;;;;;;;1.47;0.37;;;;;;;9.80;93.31;97852.90;1621999;86;20989;-60
2022/09/17 02:02:49;;;;;;;0.57;0.30;;;;;;;9.81;93.15;97851.11;1622489;87;22269;-60
2022/09/17 02:05:32;;;;;;;0.70;0.40;;;;;;;9.80;93.27;97854.64;1614123;87;21499;-60
2022/09/17 02:08:07;;;;;;;1.60;0.30;;;;;;;9.76;93.30;97853.22;1652131;83;21009;-59
2022/09/17 02:10:44;;;;;;;3.08;0.60;;;;;;;9.74;93.31;97851.20;1712323;82;21094;-59
2022/09/17 02:13:28;;;;;;;3.22;0.60;;;;;;;9.71;93.43;97851.42;1708091;82;21083;-59
2022/09/17 02:16:00;;;;;;;1.40;0.50;;;;;;;9.56;93.93;97847.70;1708213;82;21578;-60
2022/09/17 02:18:35;;;;;;;1.22;0.40;;;;;;;9.68;93.51;97846.44;1681073;83;21107;-59
2022/09/17 02:21:14;;;;;;;1.75;0.50;;;;;;;9.67;93.39;97851.30;1683349;83;20997;-59
2022/09/17 02:24:03;;;;;;;1.32;0.33;;;;;;;9.67;93.35;97851.30;1664513;85;21085;-60
2022/09/17 02:26:31;;;;;;;1.60;0.50;;;;;;;9.62;93.42;97847.24;1680307;83;21038;-60
2022/09/17 02:29:03;;;;;;;2.75;0.50;;;;;;;9.61;93.49;97848.20;1682005;83;21183;-59
2022/09/17 02:31:30;;;;;;;0.80;0.33;;;;;;;9.61;93.44;97850.80;1682381;83;21578;-60
2022/09/17 02:34:01;;;;;;;1.27;0.42;;;;;;;9.60;93.47;97847.81;1682478;83;21041;-59
2022/09/17 02:36:31;;;;;;;1.30;0.37;;;;;;;9.61;93.46;97847.38;1680849;83;21020;-59
2022/09/17 02:39:00;;;;;;;1.52;0.50;;;;;;;9.52;93.74;97851.48;1710349;82;20993;-60
2022/09/17 02:41:58;;;;;;;1.22;0.30;;;;;;;9.47;94.07;97847.07;1709041;82;20985;-60
2022/09/17 02:44:54;;;;;;;1.62;0.75;;;;;;;9.48;94.06;97844.81;1682717;83;21046;-59
2022/09/17 02:47:42;;;;;;;0.70;0.30;;;;;;;9.46;94.11;97857.11;1664073;84;21101;-60
2022/09/17 02:50:35;;;;;;;1.02;0.40;;;;;;;9.45;94.30;97850.25;1661912;84;21168;-60
2022/09/17 02:53:33;;;;;;;1.07;0.42;;;;;;;9.49;94.26;97858.19;1665019;83;21119;-60
2022/09/17 02:56:14;;;;;;;2.55;0.95;;;;;;;9.49;94.11;97849.07;1666700;84;21185;-60
2022/09/17 02:59:06;;;;;;;1.80;0.37;;;;;;;9.46;94.20;97841.48;1699923;83;21150;-61
2022/09/17 03:01:40;;;;;;;2.60;0.60;;;;;;;9.43;94.14;97857.81;1697438;83;21152;-60
2022/09/17 03:04:11;;;;;;;0.60;0.47;;;;;;;9.40;94.11;97841.93;1698829;83;21884;-60
2022/09/17 03:06:40;;;;;;;0.85;0.30;;;;;;;9.34;94.10;97847.11;1698804;83;21732;-59
2022/09/17 03:09:08;;;;;;;1.05;0.40;;;;;;;9.30;94.08;97854.80;1675314;84;20999;-59
2022/09/17 03:11:34;;;;;;;2.50;0.65;;;;;;;9.27;94.07;97849.81;1698633;83;21648;-59
2022/09/17 03:14:01;;;;;;;0.70;0.57;;;;;;;9.22;94.05;97857.59;1701955;81;20984;-60
2022/09/17 03:16:28;;;;;;;3.08;0.98;;;;;;;9.18;94.14;97849.97;1699195;83;21917;-59
2022/09/17 03:18:55;;;;;;;1.42;0.40;;;;;;;9.15;94.13;97856.70;1699724;83;21020;-59
2022/09/17 03:21:22;;;;;;;0.78;0.35;;;;;;;9.12;94.04;97854.33;1698669;82;21502;-59
2022/09/17 03:23:48;;;;;;;2.35;0.55;;;;;;;9.07;94.04;97857.72;1691225;83;21070;-60
2022/09/17 03:26:15;;;;;;;0.83;0.50;;;;;;;9.07;93.53;97859.02;1672163;84;21010;-60
2022/09/17 03:28:42;;;;;;;0.53;0.40;;;;;;;9.16;93.40;97855.78;1683486;84;21554;-59
2022/09/17 03:31:09;;;;;;;3.35;0.68;;;;;;;9.16;93.18;97861.47;1681794;84;21167;-59
2022/09/17 03:33:35;;;;;;;1.22;0.40;;;;;;;9.14;93.16;97862.87;1676203;84;21100;-60
2022/09/17 03:36:02;;;;;;;1.47;0.50;;;;;;;8.96;93.71;97863.70;1733740;81;20987;-60
2022/09/17 03:38:29;;;;;;;2.30;0.60;;;;;;;8.90;94.05;97860.69;1732243;81;21061;-59
2022/09/17 03:41:03;;;;;;;3.33;0.75;;;;;;;8.85;94.21;97853.66;1731017;81;21145;-59
2022/09/17 03:43:30;;;;;;;2.80;0.50;;;;;;;8.86;94.34;97852.74;1728975;81;20986;-59
2022/09/17 03:45:57;;;;;;;3.00;0.75;;;;;;;8.87;94.32;97853.09;1728930;81;21006;-59
2022/09/17 03:48:24;;;;;;;7.13;0.70;;;;;;;8.89;94.35;97852.52;1735698;81;21564;-59
2022/09/17 03:50:50;;;;;;;4.00;0.93;;;;;;;8.88;94.64;97853.00;1730867;81;21069;-59
2022/09/17 03:53:18;;;;;;;0.80;0.50;;;;;;;8.88;94.64;97853.00;1735798;81;22732;-59
2022/09/17 03:55:44;;;;;;;0.62;0.37;;;;;;;9.10;93.87;97855.37;1730409;81;21056;-59
2022/09/17 03:58:11;;;;;;;0.43;0.30;;;;;;;9.16;93.66;97857.56;1736762;81;21537;-60
2022/09/17 04:00:38;;;;;;;1.32;0.40;;;;;;;9.17;93.61;97849.63;1739792;81;21033;-59
2022/09/17 04:03:06;;;;;;;3.30;0.60;;;;;;;9.18;93.51;97851.28;1737809;81;21504;-59
2022/09/17 04:05:33;;;;;;;4.00;0.50;;;;;;;9.07;93.69;97847.78;1738077;81;21543;-59
2022/09/17 04:08:00;;;;;;;0.93;0.33;;;;;;;9.04;94.26;97855.33;1740252;81;20954;-59
2022/09/17 04:10:28;;;;;;;4.03;1.00;;;;;;;8.95;94.26;97842.98;1740808;81;21694;-59
2022/09/17 04:12:54;;;;;;;;;;;;;;;8.89;94.47;97842.94;1741051;81;20955;-59
2022/09/17 04:15:22;;;;;;;1.10;0.40;;;;;;;8.93;94.61;97853.95;1736724;81;20119;-60
2022/09/17 04:17:49;;;;;;;1.02;0.50;;;;;;;8.93;94.45;97855.26;1737384;81;22257;-59
2022/09/17 04:20:16;;;;;;;1.37;0.50;;;;;;;8.90;94.60;97846.37;1741863;81;21056;-60
2022/09/17 04:22:43;;;;;;;4.07;0.67;;;;;;;8.98;94.26;97849.27;1736965;81;21711;-60
2022/09/17 04:25:12;;;;;;;1.70;0.70;;;;;;;8.91;94.40;97848.05;1736540;81;20974;-60
2022/09/17 04:27:38;;;;;;;3.22;0.80;;;;;;;9.00;94.24;97852.59;1737012;81;21092;-60
2022/09/17 04:30:06;;;;;;;1.13;0.60;;;;;;;9.02;94.13;97849.42;1740405;81;21058;-60
2022/09/17 04:32:34;;;;;;;1.87;0.82;;;;;;;9.02;94.18;97847.27;1738551;81;20978;-60
2022/09/17 04:35:01;;;;;;;1.37;0.62;;;;;;;9.02;94.25;97848.12;1728434;81;21460;-60
2022/09/17 04:37:27;;;;;;;6.67;1.27;;;;;;;9.07;94.31;97851.20;1740132;81;21040;-60
2022/09/17 04:39:54;;;;;;;4.10;0.80;;;;;;;9.11;94.31;97843.56;1740407;81;20947;-60
2022/09/17 04:42:21;;;;;;;0.65;0.50;;;;;;;9.15;94.39;97843.69;1741935;81;21152;-60
2022/09/17 04:44:48;;;;;;;2.10;0.83;;;;;;;9.19;94.35;97842.55;1739364;81;21551;-60
2022/09/17 04:47:15;;;;;;;1.37;0.70;;;;;;;9.24;94.43;97860.42;1739055;81;21018;-60
2022/09/17 04:49:41;;;;;;;3.05;0.75;;;;;;;9.30;94.49;97869.57;1739906;81;21193;-60
2022/09/17 04:52:08;;;;;;;1.05;0.65;;;;;;;9.37;94.53;97868.20;1738924;81;21059;-60
2022/09/17 04:54:35;;;;;;;2.17;0.72;;;;;;;9.44;94.53;97869.44;1740454;81;21041;-61
2022/09/17 04:57:03;;;;;;;1.80;0.60;;;;;;;9.50;94.56;97875.50;1739667;81;21032;-60
2022/09/17 04:59:30;;;;;;;1.87;0.70;;;;;;;9.49;94.73;97876.91;1740771;81;20966;-61
